createdAt,value
2022-10-30T00:03:54.825Z,1001.36
2022-10-30T00:09:37.957Z,1001.32
2022-10-30T00:15:21.269Z,1001.34
2022-10-30T00:21:10.018Z,1001.28
2022-10-30T00:26:53.280Z,1001.39
2022-10-30T00:32:36.452Z,1001.44
2022-10-30T00:38:19.783Z,1001.43
2022-10-30T00:44:03.076Z,1001.33
2022-10-30T00:49:50.439Z,1001.33
2022-10-30T00:55:36.551Z,1001.36
2022-10-30T01:01:22.540Z,1001.4
2022-10-30T01:07:07.215Z,1001.43
2022-10-30T01:12:52.409Z,1001.47
2022-10-30T01:18:42.927Z,1001.42
2022-10-30T01:24:33.165Z,1001.47
2022-10-30T01:30:24.452Z,1001.37
2022-10-30T01:36:13.163Z,1001.39
2022-10-30T01:41:56.338Z,1001.46
2022-10-30T01:47:43.217Z,1001.47
2022-10-30T01:53:32.558Z,1001.57
2022-10-30T01:59:18.987Z,1001.5
2022-10-30T02:05:02.481Z,1001.41
2022-10-30T02:10:48.177Z,1001.35
2022-10-30T02:16:32.542Z,1001.33
2022-10-30T02:22:16.015Z,1001.38
2022-10-30T02:27:59.376Z,1001.37
2022-10-30T02:33:44.290Z,1001.45
2022-10-30T02:39:27.744Z,1001.27
2022-10-30T02:45:11.705Z,1001.21
2022-10-30T02:50:59.502Z,1001.32
2022-10-30T02:56:44.892Z,1001.41
2022-10-30T03:02:28.196Z,1001.44
2022-10-30T03:08:11.517Z,1001.49
2022-10-30T03:13:54.808Z,1001.55
2022-10-30T03:19:38.544Z,1001.49
2022-10-30T03:25:21.869Z,1001.41
2022-10-30T03:31:07.367Z,1001.42
2022-10-30T03:36:50.644Z,1001.38
2022-10-30T03:42:33.923Z,1001.41
2022-10-30T03:48:18.260Z,1001.34
2022-10-30T03:54:01.524Z,1001.32
2022-10-30T03:59:44.841Z,1001.28
2022-10-30T04:05:28.692Z,1001.23
2022-10-30T04:11:12.126Z,1001.18
2022-10-30T04:16:55.729Z,1001.16
2022-10-30T04:22:39.257Z,1001.19
2022-10-30T04:28:22.492Z,1001.23
2022-10-30T04:34:05.568Z,1001.12
2022-10-30T04:39:48.908Z,1001.09
2022-10-30T04:45:32.193Z,1001.09
2022-10-30T04:51:15.324Z,1001.11
2022-10-30T04:56:58.632Z,1001.13
2022-10-30T05:08:26.209Z,1001.14
2022-10-30T05:14:09.450Z,1001.08
2022-10-30T05:19:52.620Z,1001.09
2022-10-30T05:25:36.712Z,1001.12
2022-10-30T05:31:19.930Z,1001.06
2022-10-30T05:37:04.061Z,1000.95
2022-10-30T05:42:49.447Z,1000.93
2022-10-30T05:48:32.712Z,1000.93
2022-10-30T05:54:15.864Z,1000.91
2022-10-30T05:59:58.798Z,1000.86
2022-10-30T06:05:44.630Z,1000.84
2022-10-30T06:11:27.730Z,1000.69
2022-10-30T06:17:11.121Z,1000.62
2022-10-30T06:23:01.328Z,1000.62
2022-10-30T06:28:44.617Z,1000.67
2022-10-30T06:34:27.966Z,1000.67
2022-10-30T06:40:11.904Z,1000.65
2022-10-30T06:45:55.602Z,1000.78
2022-10-30T06:51:39.397Z,1000.74
2022-10-30T06:57:22.605Z,1000.65
2022-10-30T07:03:05.894Z,1000.66
2022-10-30T07:08:49.133Z,1000.57
2022-10-30T07:14:33.402Z,1000.56
2022-10-30T07:20:16.648Z,1000.51
2022-10-30T07:26:04.675Z,1000.49
2022-10-30T07:32:03.954Z,1000.59
2022-10-30T07:37:45.841Z,1000.64
2022-10-30T07:43:29.936Z,1000.67
2022-10-30T07:49:13.253Z,1000.72
2022-10-30T07:54:56.500Z,1000.73
2022-10-30T08:00:39.744Z,1000.78
2022-10-30T08:06:27.508Z,1000.8
2022-10-30T08:12:11.255Z,1000.81
2022-10-30T08:17:54.737Z,1000.8
2022-10-30T08:23:39.794Z,1000.84
2022-10-30T08:29:23.171Z,1000.76
2022-10-30T08:35:07.160Z,1000.8
2022-10-30T08:40:51.389Z,1000.88
2022-10-30T08:46:35.029Z,1000.93
2022-10-30T08:52:18.257Z,1000.91
2022-10-30T08:58:01.589Z,1000.8
2022-10-30T09:03:44.892Z,1000.76
2022-10-30T09:09:28.152Z,1000.63
2022-10-30T09:15:11.850Z,1000.71
2022-10-30T09:20:54.896Z,1000.73
2022-10-30T09:26:39.200Z,1000.74
2022-10-30T09:32:22.483Z,1000.77
2022-10-30T09:38:05.652Z,1000.77
2022-10-30T09:43:57.815Z,1000.75
2022-10-30T09:49:47.361Z,1000.7
2022-10-30T09:55:37.604Z,1000.66
2022-10-30T10:01:27.419Z,1000.72
2022-10-30T10:07:15.900Z,1000.71
2022-10-30T10:13:02.832Z,1000.64
2022-10-30T10:18:49.663Z,1000.62
2022-10-30T10:24:34.513Z,1000.62
2022-10-30T10:30:19.412Z,1000.56
2022-10-30T10:36:11.014Z,1000.51
2022-10-30T10:41:59.409Z,1000.5
2022-10-30T10:47:49.687Z,1000.49
2022-10-30T10:53:37.915Z,1000.48
2022-10-30T10:59:23.906Z,1000.54
2022-10-30T11:05:13.289Z,1000.51
2022-10-30T11:10:57.698Z,1000.55
2022-10-30T11:16:46.224Z,1000.51
2022-10-30T11:22:32.677Z,1000.52
2022-10-30T11:28:20.860Z,1000.56
2022-10-30T11:34:09.230Z,1000.56
2022-10-30T11:39:57.662Z,1000.58
2022-10-30T11:45:42.008Z,1000.58
2022-10-30T11:51:36.668Z,1000.56
2022-10-30T11:57:23.306Z,1000.62
2022-10-30T12:03:11.447Z,1000.62
2022-10-30T12:09:05.460Z,1000.61
2022-10-30T12:14:48.924Z,1000.59
2022-10-30T12:20:32.878Z,1000.61
2022-10-30T12:26:17.539Z,1000.63
2022-10-30T12:32:02.916Z,1000.66
2022-10-30T12:37:49.680Z,1000.63
2022-10-30T12:43:35.571Z,1000.59
2022-10-30T12:49:21.786Z,1000.62
2022-10-30T12:55:08.925Z,1000.52
2022-10-30T13:00:55.380Z,1000.43
2022-10-30T13:06:43.403Z,1000.53
2022-10-30T13:12:30.890Z,1000.54
2022-10-30T13:18:18.017Z,1000.6
2022-10-30T13:24:04.216Z,1000.63
2022-10-30T13:29:53.520Z,1000.68
2022-10-30T13:35:41.037Z,1000.7
2022-10-30T13:41:28.255Z,1000.67
2022-10-30T13:47:16.017Z,1000.62
2022-10-30T13:53:03.034Z,1000.63
2022-10-30T13:58:51.714Z,1000.74
2022-10-30T14:04:39.234Z,1000.8
2022-10-30T14:10:29.642Z,1000.73
2022-10-30T14:16:19.965Z,1001
2022-10-30T14:22:03.184Z,1001.04
2022-10-30T14:27:51.530Z,1001.04
2022-10-30T14:33:51.793Z,1001.08
2022-10-30T14:39:39.003Z,1001.32
2022-10-30T14:45:26.402Z,1001.43
2022-10-30T14:51:15.096Z,1001.68
2022-10-30T14:56:58.222Z,1001.83
2022-10-30T15:02:47.577Z,1001.96
2022-10-30T15:08:42.617Z,1002.05
2022-10-30T15:14:40.816Z,1002.1
2022-10-30T15:20:34.295Z,1002.08
2022-10-30T15:26:20.537Z,1002.08
2022-10-30T15:32:05.786Z,1001.98
2022-10-30T15:38:02.907Z,1002.1
2022-10-30T15:43:46.633Z,1002.13
2022-10-30T15:49:34.143Z,1002.27
2022-10-30T15:55:20.499Z,1002.35
2022-10-30T16:01:05.599Z,1002.31
2022-10-30T16:06:54.113Z,1002.26
2022-10-30T16:12:37.407Z,1002.35
2022-10-30T16:18:23.173Z,1002.37
2022-10-30T16:24:06.920Z,1002.39
2022-10-30T16:29:51.131Z,1002.47
2022-10-30T16:35:36.410Z,1002.48
2022-10-30T16:41:27.021Z,1002.46
2022-10-30T16:47:15.604Z,1002.66
2022-10-30T16:53:03.681Z,1002.78
2022-10-30T16:58:47.048Z,1002.77
2022-10-30T17:04:30.027Z,1002.86
2022-10-30T17:10:24.337Z,1002.79
2022-10-30T17:16:25.059Z,1002.75
2022-10-30T17:22:10.541Z,1002.79
2022-10-30T17:27:55.960Z,1002.88
2022-10-30T17:33:44.872Z,1002.85
2022-10-30T17:39:29.509Z,1002.94
2022-10-30T17:45:14.844Z,1002.89
2022-10-30T17:50:58.189Z,1003.05
2022-10-30T17:56:41.421Z,1003.2
2022-10-30T18:02:24.832Z,1003.4
2022-10-30T18:08:08.439Z,1003.51
2022-10-30T18:13:52.388Z,1003.53
2022-10-30T18:19:35.656Z,1003.58
2022-10-30T18:25:21.754Z,1003.67
2022-10-30T18:31:05.210Z,1003.83
2022-10-30T18:36:48.633Z,1003.76
2022-10-30T18:42:31.821Z,1003.78
2022-10-30T18:48:15.127Z,1003.75
2022-10-30T18:54:01.060Z,1003.56
2022-10-30T18:59:44.465Z,1003.86
2022-10-30T19:05:31.389Z,1003.76
2022-10-30T19:11:21.956Z,1003.65
2022-10-30T19:17:12.320Z,1003.77
2022-10-30T19:22:55.480Z,1003.93
2022-10-30T19:28:39.532Z,1003.93
2022-10-30T19:34:22.842Z,1003.88
2022-10-30T19:40:15.190Z,1003.88
2022-10-30T19:45:58.538Z,1003.95
2022-10-30T19:51:41.779Z,1003.95
2022-10-30T19:57:25.301Z,1004.15
2022-10-30T20:03:08.497Z,1004.21
2022-10-30T20:08:53.742Z,1004.21
2022-10-30T20:14:39.102Z,1004.21
2022-10-30T20:20:24.233Z,1004.19
2022-10-30T20:26:08.245Z,1004.2
2022-10-30T20:31:51.397Z,1004.29
2022-10-30T20:37:34.711Z,1004.38
2022-10-30T20:43:19.187Z,1004.53
2022-10-30T20:49:12.088Z,1004.59
2022-10-30T20:55:01.063Z,1004.62
2022-10-30T21:00:45.826Z,1004.63
2022-10-30T21:06:30.229Z,1004.64
2022-10-30T21:12:14.225Z,1004.69
2022-10-30T21:18:00.505Z,1004.73
2022-10-30T21:23:47.023Z,1004.75
2022-10-30T21:29:34.325Z,1004.81
2022-10-30T21:35:19.120Z,1004.78
2022-10-30T21:41:02.696Z,1004.8
2022-10-30T21:46:46.246Z,1004.77
2022-10-30T21:52:29.611Z,1004.8
2022-10-30T21:58:12.817Z,1004.87
2022-10-30T22:03:56.446Z,1004.88
2022-10-30T22:09:40.641Z,1004.86
2022-10-30T22:15:24.092Z,1004.94
2022-10-30T22:21:08.914Z,1004.97
2022-10-30T22:26:52.222Z,1004.97
2022-10-30T22:32:35.560Z,1004.91
2022-10-30T22:38:18.721Z,1004.91
2022-10-30T22:44:02.298Z,1004.94
2022-10-30T22:49:45.834Z,1004.96
2022-10-30T22:55:29.149Z,1004.94
2022-10-30T23:01:13.985Z,1004.84
2022-10-30T23:06:57.535Z,1004.78
2022-10-30T23:12:40.749Z,1004.79
2022-10-30T23:18:24.001Z,1004.77
2022-10-30T23:24:08.738Z,1004.73
2022-10-30T23:29:52.884Z,1004.73
2022-10-30T23:35:36.128Z,1004.76
2022-10-30T23:41:19.332Z,1004.68
2022-10-30T23:47:03.632Z,1004.68
2022-10-30T23:52:46.681Z,1004.73
2022-10-30T23:58:29.802Z,1004.73
